KLM163 EHAM-TNCC
Flight info
| Callsign | KLM163 |
|---|---|
| Flight time | N/A |
| Altitude | 32000 |
| Route | BERGI L60 PENIL M144 BAGSO DCT GIMRO DCT LIMRI/M084F340 DCT 52N020W 51N030W 49N040W 47N050W DCT PORTI DCT LOMPI M202 JEBBY/M084F360 DCT 40N060W DCT BDA DCT GECAL L458 CHEDR/N0491F360 L458 THANK DCT SCAPA SCAPA1B |
| Aircraft | B77W/H-SDE1E2E3FGHIJ2J3J4J5M1RWXY/LB1D1 |
Departure
| Time | 2026-05-08 07:30 |
|---|---|
| Airport | Amsterdam Airport Schiphol (EHAM) |
Arrival
| Time | N/A |
|---|---|
| Airport | Hato International Airport (TNCC) |
| Time | Latitude | Longitude | Altitude | Speed | Heading |
|---|---|---|---|---|---|
| 2026-05-08 06:58 | 52.31323 | 4.76661 | 4 ft | 0 kts | 124° |
| 2026-05-08 07:18 | 52.31326 | 4.76655 | 4 ft | 2 kts | 122° |
| 2026-05-08 07:18 | 52.31335 | 4.76632 | 4 ft | 2 kts | 125° |
| 2026-05-08 07:19 | 52.31345 | 4.76610 | 6 ft | 2 kts | 128° |
| 2026-05-08 07:19 | 52.31356 | 4.76590 | 5 ft | 2 kts | 134° |
| 2026-05-08 07:19 | 52.31368 | 4.76572 | 6 ft | 2 kts | 163° |
| 2026-05-08 07:19 | 52.31384 | 4.76575 | 6 ft | 2 kts | 212° |
| 2026-05-08 07:20 | 52.31389 | 4.76579 | 7 ft | 2 kts | 223° |
| 2026-05-08 07:20 | 52.31385 | 4.76574 | 6 ft | 0 kts | 219° |
| 2026-05-08 07:20 | 52.31371 | 4.76556 | 6 ft | 2 kts | 217° |
| 2026-05-08 07:20 | 52.31356 | 4.76534 | 4 ft | 4 kts | 227° |
| 2026-05-08 07:21 | 52.31347 | 4.76494 | 3 ft | 4 kts | 265° |
| 2026-05-08 07:21 | 52.31355 | 4.76452 | 3 ft | 4 kts | 301° |
| 2026-05-08 07:21 | 52.31364 | 4.76438 | 4 ft | 0 kts | 327° |
| 2026-05-08 07:23 | 52.31370 | 4.76433 | 4 ft | 4 kts | 329° |
| 2026-05-08 07:23 | 52.31425 | 4.76394 | 4 ft | 10 kts | 340° |
| 2026-05-08 07:23 | 52.31490 | 4.76351 | 4 ft | 10 kts | 330° |
| 2026-05-08 07:24 | 52.31531 | 4.76258 | 4 ft | 11 kts | 286° |
| 2026-05-08 07:24 | 52.31535 | 4.76099 | 4 ft | 17 kts | 267° |
| 2026-05-08 07:24 | 52.31528 | 4.75897 | 4 ft | 18 kts | 267° |
| 2026-05-08 07:24 | 52.31520 | 4.75694 | 4 ft | 18 kts | 266° |
| 2026-05-08 07:25 | 52.31514 | 4.75493 | 4 ft | 18 kts | 268° |
| 2026-05-08 07:25 | 52.31504 | 4.75234 | 3 ft | 25 kts | 266° |
| 2026-05-08 07:25 | 52.31486 | 4.74662 | 4 ft | 25 kts | 268° |
| 2026-05-08 07:26 | 52.31476 | 4.74377 | 4 ft | 24 kts | 266° |
| 2026-05-08 07:26 | 52.31444 | 4.74187 | 4 ft | 17 kts | 229° |
| 2026-05-08 07:26 | 52.31332 | 4.74132 | 4 ft | 17 kts | 186° |
| 2026-05-08 07:26 | 52.31213 | 4.74119 | 4 ft | 18 kts | 183° |
| 2026-05-08 07:27 | 52.31044 | 4.74104 | 4 ft | 31 kts | 183° |
| 2026-05-08 07:27 | 52.30832 | 4.74085 | 4 ft | 30 kts | 183° |
| 2026-05-08 07:27 | 52.30636 | 4.74069 | 4 ft | 23 kts | 183° |
| 2026-05-08 07:27 | 52.30475 | 4.74056 | 4 ft | 22 kts | 182° |
| 2026-05-08 07:28 | 52.30351 | 4.74026 | 4 ft | 18 kts | 198° |
| 2026-05-08 07:28 | 52.30241 | 4.73942 | 3 ft | 18 kts | 214° |
| 2026-05-08 07:28 | 52.30206 | 4.73770 | 2 ft | 18 kts | 299° |
| 2026-05-08 07:28 | 52.30295 | 4.73739 | 1 ft | 15 kts | 5° |
| 2026-05-08 07:29 | 52.30487 | 4.73765 | 2 ft | 49 kts | 4° |
| 2026-05-08 07:29 | 52.31094 | 4.73823 | 4 ft | 124 kts | 3° |
| 2026-05-08 07:29 | 52.32161 | 4.73931 | 4 ft | 186 kts | 6° |
| 2026-05-08 07:29 | 52.33564 | 4.74212 | 355 ft | 201 kts | 8° |
| 2026-05-08 07:30 | 52.34965 | 4.74363 | 1019 ft | 205 kts | 5° |
| 2026-05-08 07:30 | 52.36408 | 4.74452 | 1682 ft | 209 kts | 4° |
| 2026-05-08 07:30 | 52.37687 | 4.74533 | 1922 ft | 228 kts | 4° |
| 2026-05-08 07:30 | 52.39297 | 4.74662 | 2308 ft | 241 kts | 4° |
| 2026-05-08 07:31 | 52.40990 | 4.74642 | 2709 ft | 251 kts | 347° |
| 2026-05-08 07:31 | 52.42553 | 4.73326 | 3180 ft | 257 kts | 324° |
| 2026-05-08 07:31 | 52.44011 | 4.71577 | 3825 ft | 262 kts | 325° |
| 2026-05-08 07:31 | 52.45506 | 4.69818 | 4472 ft | 266 kts | 325° |
| 2026-05-08 07:32 | 52.47014 | 4.68054 | 5196 ft | 268 kts | 325° |
| 2026-05-08 07:32 | 52.48540 | 4.66281 | 5923 ft | 269 kts | 325° |
| 2026-05-08 07:32 | 52.50080 | 4.64499 | 6598 ft | 272 kts | 325° |
| 2026-05-08 07:32 | 52.51643 | 4.62698 | 7223 ft | 276 kts | 325° |
| 2026-05-08 07:33 | 52.53226 | 4.60877 | 7855 ft | 279 kts | 324° |
| 2026-05-08 07:33 | 52.54822 | 4.59043 | 8500 ft | 281 kts | 324° |
| 2026-05-08 07:33 | 52.56432 | 4.57194 | 9130 ft | 284 kts | 324° |
| 2026-05-08 07:33 | 52.58063 | 4.55322 | 9751 ft | 287 kts | 323° |
| 2026-05-08 07:34 | 52.59708 | 4.53431 | 10332 ft | 291 kts | 323° |
| 2026-05-08 07:34 | 52.61403 | 4.51480 | 10589 ft | 307 kts | 323° |
| 2026-05-08 07:34 | 52.63215 | 4.49393 | 10759 ft | 327 kts | 324° |
| 2026-05-08 07:34 | 52.65104 | 4.47216 | 10917 ft | 347 kts | 324° |
| 2026-05-08 07:35 | 52.67136 | 4.44873 | 11157 ft | 365 kts | 323° |
| 2026-05-08 07:35 | 52.69246 | 4.42440 | 11698 ft | 374 kts | 324° |
| 2026-05-08 07:35 | 52.71367 | 4.39991 | 12358 ft | 380 kts | 323° |
| 2026-05-08 07:35 | 52.73452 | 4.37322 | 12985 ft | 381 kts | 314° |
| 2026-05-08 07:36 | 52.75099 | 4.33917 | 13438 ft | 381 kts | 299° |
| 2026-05-08 07:36 | 52.76219 | 4.29917 | 14074 ft | 383 kts | 288° |
| 2026-05-08 07:36 | 52.77062 | 4.25706 | 14673 ft | 388 kts | 287° |
| 2026-05-08 07:36 | 52.77893 | 4.21463 | 15464 ft | 388 kts | 287° |
| 2026-05-08 07:37 | 52.78730 | 4.17189 | 16189 ft | 392 kts | 287° |
| 2026-05-08 07:37 | 52.79575 | 4.12886 | 16879 ft | 396 kts | 287° |
| 2026-05-08 07:37 | 52.80434 | 4.08547 | 17607 ft | 398 kts | 287° |
| 2026-05-08 07:37 | 52.81290 | 4.04233 | 18293 ft | 402 kts | 287° |
| 2026-05-08 07:38 | 52.82179 | 3.99770 | 18914 ft | 405 kts | 287° |
| 2026-05-08 07:38 | 52.83053 | 3.95379 | 19500 ft | 408 kts | 287° |
| 2026-05-08 07:38 | 52.83943 | 3.90905 | 20091 ft | 412 kts | 287° |
| 2026-05-08 07:38 | 52.84841 | 3.86378 | 20668 ft | 415 kts | 287° |
| 2026-05-08 07:39 | 52.85745 | 3.81815 | 21229 ft | 419 kts | 287° |
| 2026-05-08 07:39 | 52.86653 | 3.77224 | 21788 ft | 422 kts | 287° |
| 2026-05-08 07:39 | 52.87569 | 3.72577 | 22346 ft | 426 kts | 287° |
| 2026-05-08 07:39 | 52.88491 | 3.67887 | 22888 ft | 430 kts | 287° |
| 2026-05-08 07:40 | 52.89418 | 3.63165 | 23420 ft | 433 kts | 287° |
| 2026-05-08 07:40 | 52.90350 | 3.58401 | 23899 ft | 436 kts | 287° |
| 2026-05-08 07:40 | 52.91288 | 3.53594 | 24362 ft | 439 kts | 287° |
| 2026-05-08 07:40 | 52.92201 | 3.48907 | 24803 ft | 441 kts | 286° |
| 2026-05-08 07:41 | 52.93068 | 3.44443 | 25222 ft | 443 kts | 286° |
| 2026-05-08 07:41 | 52.94013 | 3.39569 | 25649 ft | 446 kts | 286° |
| 2026-05-08 07:41 | 52.94950 | 3.34718 | 26066 ft | 448 kts | 286° |
| 2026-05-08 07:41 | 52.95903 | 3.29782 | 26483 ft | 451 kts | 286° |
| 2026-05-08 07:42 | 52.96859 | 3.24812 | 26898 ft | 453 kts | 286° |
| 2026-05-08 07:42 | 52.97817 | 3.19818 | 27293 ft | 455 kts | 286° |
| 2026-05-08 07:42 | 52.98778 | 3.14789 | 27693 ft | 458 kts | 286° |
| 2026-05-08 07:42 | 52.99740 | 3.09725 | 28073 ft | 460 kts | 286° |
| 2026-05-08 07:43 | 53.00700 | 3.04655 | 28449 ft | 462 kts | 286° |
| 2026-05-08 07:43 | 53.01665 | 2.99547 | 28819 ft | 464 kts | 286° |
| 2026-05-08 07:43 | 53.02633 | 2.94414 | 29149 ft | 467 kts | 286° |
| 2026-05-08 07:43 | 53.03602 | 2.89261 | 29468 ft | 469 kts | 286° |
| 2026-05-08 07:44 | 53.04574 | 2.84078 | 29773 ft | 471 kts | 285° |
| 2026-05-08 07:44 | 53.05549 | 2.78867 | 30103 ft | 472 kts | 285° |
| 2026-05-08 07:44 | 53.06508 | 2.73726 | 30459 ft | 471 kts | 285° |
| 2026-05-08 07:44 | 53.07474 | 2.68539 | 30816 ft | 469 kts | 285° |
| 2026-05-08 07:45 | 53.08437 | 2.63352 | 31157 ft | 468 kts | 285° |
| 2026-05-08 07:45 | 53.09395 | 2.58176 | 31469 ft | 468 kts | 285° |
| 2026-05-08 07:45 | 53.10349 | 2.52987 | 31765 ft | 468 kts | 284° |
| 2026-05-08 07:45 | 53.11135 | 2.47747 | 32051 ft | 467 kts | 279° |
| 2026-05-08 07:46 | 53.11627 | 2.42400 | 32119 ft | 469 kts | 276° |
| 2026-05-08 07:46 | 53.12464 | 2.31618 | 32122 ft | 467 kts | 276° |
| 2026-05-08 07:47 | 53.13287 | 2.20962 | 32132 ft | 463 kts | 276° |
| 2026-05-08 07:47 | 53.14126 | 2.10325 | 32136 ft | 463 kts | 276° |
| 2026-05-08 07:48 | 53.14969 | 1.99700 | 32140 ft | 463 kts | 276° |
| 2026-05-08 07:48 | 53.15801 | 1.89106 | 32142 ft | 464 kts | 276° |
| 2026-05-08 07:49 | 53.16627 | 1.78444 | 32140 ft | 465 kts | 276° |
| 2026-05-08 07:49 | 53.17447 | 1.67731 | 32141 ft | 465 kts | 276° |
| 2026-05-08 07:50 | 53.18258 | 1.57014 | 32138 ft | 466 kts | 276° |
| 2026-05-08 07:50 | 53.19059 | 1.46292 | 32140 ft | 466 kts | 276° |
| 2026-05-08 07:51 | 53.19850 | 1.35562 | 32136 ft | 466 kts | 275° |
| 2026-05-08 07:51 | 53.20631 | 1.24841 | 32134 ft | 465 kts | 275° |
| 2026-05-08 07:52 | 53.21398 | 1.14174 | 32137 ft | 465 kts | 275° |
| 2026-05-08 07:52 | 53.22158 | 1.03464 | 32133 ft | 464 kts | 275° |
| 2026-05-08 07:53 | 53.22909 | 0.92754 | 32132 ft | 464 kts | 275° |
| 2026-05-08 07:53 | 53.23649 | 0.82051 | 32131 ft | 464 kts | 275° |
| 2026-05-08 07:54 | 53.24379 | 0.71346 | 32131 ft | 464 kts | 275° |
| 2026-05-08 07:54 | 53.25100 | 0.60639 | 32129 ft | 464 kts | 275° |
| 2026-05-08 07:55 | 53.25807 | 0.49995 | 32123 ft | 464 kts | 275° |
| 2026-05-08 07:55 | 53.26509 | 0.39282 | 32122 ft | 464 kts | 275° |
| 2026-05-08 07:56 | 53.27200 | 0.28574 | 32113 ft | 464 kts | 275° |
| 2026-05-08 07:56 | 53.27882 | 0.17861 | 32110 ft | 464 kts | 275° |
| 2026-05-08 07:57 | 53.28556 | 0.07145 | 32113 ft | 463 kts | 275° |
| 2026-05-08 07:57 | 53.29447 | -0.03523 | 32106 ft | 463 kts | 278° |
| 2026-05-08 07:58 | 53.30567 | -0.14051 | 32101 ft | 463 kts | 279° |
| 2026-05-08 07:58 | 53.31675 | -0.24651 | 32101 ft | 463 kts | 278° |
| 2026-05-08 07:59 | 53.32755 | -0.35275 | 32098 ft | 463 kts | 278° |
| 2026-05-08 07:59 | 53.33824 | -0.45885 | 32098 ft | 462 kts | 278° |
| 2026-05-08 08:00 | 53.34893 | -0.56497 | 32094 ft | 462 kts | 278° |
| 2026-05-08 08:00 | 53.35950 | -0.67100 | 32091 ft | 462 kts | 278° |
| 2026-05-08 08:01 | 53.36982 | -0.77722 | 32085 ft | 461 kts | 278° |
| 2026-05-08 08:01 | 53.38001 | -0.88317 | 32092 ft | 461 kts | 278° |
| 2026-05-08 08:02 | 53.39030 | -0.98913 | 32078 ft | 460 kts | 279° |
| 2026-05-08 08:02 | 53.40065 | -1.09424 | 32081 ft | 460 kts | 279° |
| 2026-05-08 08:03 | 53.41070 | -1.20000 | 32080 ft | 459 kts | 279° |
| 2026-05-08 08:03 | 53.42043 | -1.30579 | 32075 ft | 459 kts | 279° |
| 2026-05-08 08:04 | 53.43031 | -1.41150 | 32082 ft | 458 kts | 279° |
| 2026-05-08 08:04 | 53.44018 | -1.51705 | 32077 ft | 457 kts | 279° |
| 2026-05-08 08:05 | 53.44982 | -1.62235 | 32075 ft | 456 kts | 279° |
| 2026-05-08 08:05 | 53.45919 | -1.72594 | 32080 ft | 455 kts | 279° |
| 2026-05-08 08:06 | 53.46861 | -1.83088 | 32087 ft | 455 kts | 279° |
| 2026-05-08 08:06 | 53.47623 | -1.91810 | 32090 ft | 454 kts | 278° |
| 2026-05-08 08:07 | 53.48674 | -2.04005 | 32097 ft | 453 kts | 278° |
| 2026-05-08 08:07 | 53.49424 | -2.12762 | 32096 ft | 452 kts | 278° |
| 2026-05-08 08:08 | 53.50312 | -2.23218 | 32099 ft | 451 kts | 278° |
| 2026-05-08 08:08 | 53.51187 | -2.33573 | 32091 ft | 450 kts | 278° |
| 2026-05-08 08:09 | 53.52058 | -2.43973 | 32091 ft | 449 kts | 278° |
| 2026-05-08 08:09 | 53.52917 | -2.54341 | 32089 ft | 448 kts | 278° |
| 2026-05-08 08:10 | 53.53767 | -2.64727 | 32080 ft | 447 kts | 277° |
| 2026-05-08 08:10 | 53.54605 | -2.75085 | 32080 ft | 447 kts | 277° |
| 2026-05-08 08:11 | 53.55434 | -2.85428 | 32068 ft | 446 kts | 277° |
| 2026-05-08 08:11 | 53.56254 | -2.95787 | 32077 ft | 446 kts | 277° |
| 2026-05-08 08:12 | 53.57064 | -3.06130 | 32080 ft | 446 kts | 277° |
| 2026-05-08 08:12 | 53.57859 | -3.16405 | 32079 ft | 445 kts | 277° |
| 2026-05-08 08:13 | 53.58648 | -3.26719 | 32081 ft | 444 kts | 277° |
| 2026-05-08 08:13 | 53.59429 | -3.37034 | 32081 ft | 443 kts | 276° |
| 2026-05-08 08:14 | 53.60199 | -3.47338 | 32074 ft | 443 kts | 276° |
| 2026-05-08 08:14 | 53.60959 | -3.57612 | 32075 ft | 442 kts | 276° |
| 2026-05-08 08:15 | 53.61705 | -3.67882 | 32059 ft | 441 kts | 275° |
| 2026-05-08 08:15 | 53.62162 | -3.78181 | 32073 ft | 441 kts | 273° |
| 2026-05-08 08:16 | 53.62546 | -3.88480 | 32065 ft | 440 kts | 273° |
| 2026-05-08 08:16 | 53.62973 | -3.98782 | 32139 ft | 442 kts | 273° |
| 2026-05-08 08:16 | 53.63178 | -4.03952 | 32410 ft | 442 kts | 273° |
| 2026-05-08 08:17 | 53.63379 | -4.09106 | 32731 ft | 440 kts | 273° |
| 2026-05-08 08:17 | 53.63575 | -4.14239 | 33091 ft | 437 kts | 273° |
| 2026-05-08 08:17 | 53.63766 | -4.19337 | 33467 ft | 434 kts | 273° |
| 2026-05-08 08:17 | 53.63954 | -4.24396 | 33811 ft | 432 kts | 273° |
| 2026-05-08 08:18 | 53.64141 | -4.29448 | 33998 ft | 432 kts | 273° |
| 2026-05-08 08:18 | 53.64502 | -4.39497 | 34047 ft | 432 kts | 272° |
| 2026-05-08 08:19 | 53.64853 | -4.49575 | 34056 ft | 429 kts | 272° |
| 2026-05-08 08:19 | 53.65191 | -4.59450 | 34049 ft | 427 kts | 272° |
| 2026-05-08 08:20 | 53.65526 | -4.69427 | 34058 ft | 426 kts | 272° |
| 2026-05-08 08:20 | 53.65853 | -4.79380 | 34054 ft | 426 kts | 272° |
| 2026-05-08 08:21 | 53.66176 | -4.89354 | 34072 ft | 426 kts | 272° |
| 2026-05-08 08:21 | 53.66508 | -4.99356 | 34075 ft | 427 kts | 272° |
| 2026-05-08 08:22 | 53.66833 | -5.09376 | 34064 ft | 428 kts | 271° |
| 2026-05-08 08:22 | 53.67143 | -5.19410 | 34064 ft | 429 kts | 271° |
| 2026-05-08 08:23 | 53.67431 | -5.29450 | 34065 ft | 429 kts | 271° |
| 2026-05-08 08:23 | 53.67714 | -5.39486 | 34065 ft | 428 kts | 271° |
| 2026-05-08 08:24 | 53.67817 | -5.49435 | 34069 ft | 426 kts | 265° |
| 2026-05-08 08:24 | 53.67024 | -5.59313 | 34067 ft | 425 kts | 259° |
| 2026-05-08 08:25 | 53.65929 | -5.69106 | 34067 ft | 424 kts | 259° |
| 2026-05-08 08:25 | 53.64832 | -5.78893 | 34058 ft | 424 kts | 257° |
| 2026-05-08 08:26 | 53.63525 | -5.88583 | 34057 ft | 424 kts | 256° |
| 2026-05-08 08:26 | 53.62167 | -5.98249 | 34050 ft | 424 kts | 256° |
| 2026-05-08 08:27 | 53.60823 | -6.07910 | 34050 ft | 424 kts | 256° |
| 2026-05-08 08:27 | 53.59486 | -6.17578 | 34048 ft | 424 kts | 256° |
| 2026-05-08 08:28 | 53.58155 | -6.27183 | 34050 ft | 424 kts | 256° |
| 2026-05-08 08:28 | 53.56808 | -6.36856 | 34051 ft | 424 kts | 256° |
| 2026-05-08 08:29 | 53.55452 | -6.46525 | 34046 ft | 425 kts | 256° |
| 2026-05-08 08:29 | 53.54086 | -6.56200 | 34047 ft | 425 kts | 256° |
| 2026-05-08 08:30 | 53.52712 | -6.65869 | 34043 ft | 425 kts | 256° |
| 2026-05-08 08:30 | 53.50638 | -6.80351 | 34043 ft | 425 kts | 255° |
| 2026-05-08 08:31 | 53.49256 | -6.89928 | 34035 ft | 425 kts | 255° |
| 2026-05-08 08:31 | 53.47856 | -6.99573 | 34041 ft | 425 kts | 255° |
| 2026-05-08 08:32 | 53.46448 | -7.09210 | 34037 ft | 425 kts | 255° |
| 2026-05-08 08:32 | 53.45032 | -7.18839 | 34034 ft | 425 kts | 255° |
| 2026-05-08 08:33 | 53.43610 | -7.28454 | 34037 ft | 424 kts | 255° |
| 2026-05-08 08:33 | 53.42179 | -7.38068 | 34035 ft | 424 kts | 255° |
| 2026-05-08 08:34 | 53.40753 | -7.47590 | 34032 ft | 424 kts | 255° |
| 2026-05-08 08:34 | 53.39313 | -7.57154 | 34036 ft | 424 kts | 254° |
| 2026-05-08 08:35 | 53.37862 | -7.66726 | 34035 ft | 423 kts | 254° |
| 2026-05-08 08:35 | 53.36405 | -7.76288 | 34038 ft | 423 kts | 254° |
| 2026-05-08 08:36 | 53.34942 | -7.85826 | 34039 ft | 423 kts | 254° |
| 2026-05-08 08:36 | 53.33471 | -7.95364 | 34035 ft | 423 kts | 254° |
| 2026-05-08 08:37 | 53.31995 | -8.04878 | 34038 ft | 423 kts | 254° |
| 2026-05-08 08:37 | 53.30508 | -8.14406 | 34046 ft | 423 kts | 254° |
| 2026-05-08 08:38 | 53.29014 | -8.23929 | 34041 ft | 423 kts | 253° |